createdAt,value
2023-05-21T00:01:35.663Z,99660.51
2023-05-21T00:04:06.373Z,99660.06
2023-05-21T00:06:38.267Z,99664.73
2023-05-21T00:09:06.777Z,99665.35
2023-05-21T00:11:35.166Z,99665.29
2023-05-21T00:14:03.529Z,99665.06
2023-05-21T00:16:31.870Z,99662.91
2023-05-21T00:19:00.228Z,99664.98
2023-05-21T00:21:29.912Z,99664.13
2023-05-21T00:23:59.029Z,99663.10
2023-05-21T00:26:27.353Z,99662.39
2023-05-21T00:28:57.360Z,99660.43
2023-05-21T00:31:25.503Z,99661.26
2023-05-21T00:33:54.202Z,99660.49
2023-05-21T00:36:24.197Z,99656.38
2023-05-21T00:38:52.806Z,99650.71
2023-05-21T00:41:23.654Z,99649.74
2023-05-21T00:43:53.151Z,99651.31
2023-05-21T00:46:22.773Z,99655.63
2023-05-21T00:48:52.512Z,99658.23
2023-05-21T00:51:21.798Z,99661.10
2023-05-21T00:53:53.177Z,99663.13
2023-05-21T00:56:24.734Z,99661.51
2023-05-21T00:58:59.631Z,99665.02
2023-05-21T01:01:28.006Z,99666.11
2023-05-21T01:03:58.034Z,99672.39
2023-05-21T01:06:26.709Z,99672.43
2023-05-21T01:08:57.132Z,99669.78
2023-05-21T01:11:37.356Z,99669.09
2023-05-21T01:14:10.219Z,99664.09
2023-05-21T01:16:41.166Z,99664.39
2023-05-21T01:19:14.420Z,99661.25
2023-05-21T01:21:48.438Z,99663.67
2023-05-21T01:24:16.962Z,99662.85
2023-05-21T01:26:46.594Z,99658.88
2023-05-21T01:29:15.186Z,99661.40
2023-05-21T01:32:10.033Z,99658.15
2023-05-21T01:35:06.803Z,99654.79
2023-05-21T01:37:41.719Z,99653.78
2023-05-21T01:40:28.335Z,99655.00
2023-05-21T01:42:58.623Z,99654.90
2023-05-21T01:45:31.577Z,99657.55
2023-05-21T01:48:00.923Z,99649.82
2023-05-21T01:50:32.186Z,99645.77
2023-05-21T01:53:06.099Z,99649.39
2023-05-21T01:55:36.062Z,99644.53
2023-05-21T01:58:04.616Z,99641.39
2023-05-21T02:00:34.801Z,99637.03
2023-05-21T02:03:03.493Z,99637.41
2023-05-21T02:05:31.813Z,99640.08
2023-05-21T02:08:00.274Z,99635.83
2023-05-21T02:10:28.741Z,99635.23
2023-05-21T02:12:57.017Z,99630.67
2023-05-21T02:15:25.990Z,99629.78
2023-05-21T02:17:55.923Z,99629.77
2023-05-21T02:20:24.224Z,99630.22
2023-05-21T02:22:52.623Z,99626.41
2023-05-21T02:25:21.157Z,99622.88
2023-05-21T02:27:53.812Z,99620.75
2023-05-21T02:30:22.446Z,99615.05
2023-05-21T02:32:50.908Z,99615.23
2023-05-21T02:35:19.588Z,99616.39
2023-05-21T02:37:49.131Z,99613.77
2023-05-21T02:40:17.445Z,99611.41
2023-05-21T02:42:45.897Z,99608.15
2023-05-21T02:45:15.745Z,99606.70
2023-05-21T02:47:44.598Z,99607.89
2023-05-21T02:50:15.172Z,99608.98
2023-05-21T02:52:46.985Z,99607.02
2023-05-21T02:55:15.372Z,99602.23
2023-05-21T02:57:43.930Z,99596.88
2023-05-21T03:00:13.528Z,99598.58
2023-05-21T03:02:43.490Z,99600.98
2023-05-21T03:05:12.319Z,99606.27
2023-05-21T03:07:42.080Z,99606.54
2023-05-21T03:10:11.103Z,99603.30
2023-05-21T03:12:39.457Z,99604.41
2023-05-21T03:15:08.333Z,99608.05
2023-05-21T03:17:36.813Z,99611.36
2023-05-21T03:20:05.843Z,99612.37
2023-05-21T03:22:34.663Z,99609.43
2023-05-21T03:25:05.708Z,99610.33
2023-05-21T03:27:33.955Z,99608.00
2023-05-21T03:30:06.825Z,99601.13
2023-05-21T03:32:41.576Z,99596.77
2023-05-21T03:35:11.247Z,99594.73
2023-05-21T03:37:39.772Z,99596.58
2023-05-21T03:40:08.723Z,99599.69
2023-05-21T03:42:37.209Z,99597.95
2023-05-21T03:45:06.675Z,99596.30
2023-05-21T03:47:58.442Z,99597.57
2023-05-21T03:50:28.060Z,99597.73
2023-05-21T03:52:56.328Z,99596.98
2023-05-21T03:55:25.306Z,99598.05
2023-05-21T03:57:53.607Z,99599.23
2023-05-21T04:00:24.488Z,99600.67
2023-05-21T04:02:53.199Z,99595.16
2023-05-21T04:05:21.733Z,99596.83
2023-05-21T04:07:50.636Z,99599.52
2023-05-21T04:10:23.332Z,99598.05
2023-05-21T04:12:52.771Z,99597.39
2023-05-21T04:15:23.389Z,99596.66
2023-05-21T04:17:52.740Z,99592.11
2023-05-21T04:20:21.579Z,99594.21
2023-05-21T04:22:50.147Z,99593.67
2023-05-21T04:25:20.485Z,99596.35
2023-05-21T04:27:50.330Z,99596.76
2023-05-21T04:30:22.823Z,99596.19
2023-05-21T04:32:52.848Z,99595.98
2023-05-21T04:35:21.741Z,99596.41
2023-05-21T04:37:50.651Z,99596.16
2023-05-21T04:40:24.495Z,99598.96
2023-05-21T04:42:53.082Z,99599.75
2023-05-21T04:45:24.768Z,99595.42
2023-05-21T04:47:53.980Z,99596.33
2023-05-21T04:50:23.294Z,99595.92
2023-05-21T04:52:51.593Z,99597.48
2023-05-21T04:55:20.140Z,99598.19
2023-05-21T04:57:48.490Z,99596.98
2023-05-21T05:00:17.725Z,99591.50
2023-05-21T05:02:47.359Z,99587.83
2023-05-21T05:05:15.988Z,99586.00
2023-05-21T05:07:44.348Z,99585.73
2023-05-21T05:10:12.722Z,99586.18
2023-05-21T05:12:41.162Z,99585.02
2023-05-21T05:15:09.809Z,99586.34
2023-05-21T05:17:40.057Z,99588.50
2023-05-21T05:20:10.232Z,99591.48
2023-05-21T05:22:39.283Z,99593.04
2023-05-21T05:25:08.045Z,99590.70
2023-05-21T05:27:38.382Z,99588.05
2023-05-21T05:30:07.968Z,99587.61
2023-05-21T05:32:36.662Z,99585.70
2023-05-21T05:35:05.502Z,99583.99
2023-05-21T05:37:34.138Z,99581.51
2023-05-21T05:40:02.500Z,99576.26
2023-05-21T05:42:31.042Z,99573.45
2023-05-21T05:45:00.399Z,99568.77
2023-05-21T05:47:29.027Z,99566.82
2023-05-21T05:49:59.353Z,99565.44
2023-05-21T05:52:27.722Z,99560.88
2023-05-21T05:54:55.987Z,99559.46
2023-05-21T05:57:24.248Z,99559.90
2023-05-21T05:59:54.031Z,99554.42
2023-05-21T06:02:22.475Z,99554.27
2023-05-21T06:04:50.820Z,99549.79
2023-05-21T06:07:19.577Z,99545.67
2023-05-21T06:09:47.857Z,99544.25
2023-05-21T06:12:16.697Z,99541.58
2023-05-21T06:14:46.676Z,99538.88
2023-05-21T06:17:15.547Z,99542.20
2023-05-21T06:19:45.341Z,99539.36
2023-05-21T06:22:13.689Z,99538.27
2023-05-21T06:24:42.068Z,99534.73
2023-05-21T06:27:11.250Z,99528.16
2023-05-21T06:29:41.041Z,99527.86
2023-05-21T06:32:09.736Z,99526.45
2023-05-21T06:34:38.235Z,99527.61
2023-05-21T06:37:06.596Z,99526.62
2023-05-21T06:39:35.377Z,99530.09
2023-05-21T06:42:04.455Z,99533.26
2023-05-21T06:44:53.458Z,99537.60
2023-05-21T06:47:27.566Z,99537.86
2023-05-21T06:49:56.698Z,99536.08
2023-05-21T06:52:27.255Z,99533.86
2023-05-21T06:54:56.231Z,99529.75
2023-05-21T06:57:25.199Z,99525.66
2023-05-21T06:59:53.562Z,99525.04
2023-05-21T07:02:21.894Z,99522.98
2023-05-21T07:04:50.500Z,99516.17
2023-05-21T07:07:18.917Z,99518.54
2023-05-21T07:09:47.364Z,99521.23
2023-05-21T07:12:16.287Z,99515.02
2023-05-21T07:14:44.770Z,99513.85
2023-05-21T07:17:13.022Z,99511.42
2023-05-21T07:19:41.372Z,99512.45
2023-05-21T07:22:12.671Z,99511.28
2023-05-21T07:24:41.617Z,99508.82
2023-05-21T07:27:24.709Z,99514.42
2023-05-21T07:29:54.016Z,99511.21
2023-05-21T07:32:23.002Z,99511.57
2023-05-21T07:34:54.194Z,99510.21
2023-05-21T07:37:25.631Z,99509.36
2023-05-21T07:39:57.073Z,99508.27
2023-05-21T07:42:26.841Z,99504.48
2023-05-21T07:44:56.163Z,99504.73
2023-05-21T07:47:24.816Z,99501.58
2023-05-21T07:49:53.380Z,99500.27
2023-05-21T07:52:22.387Z,99498.27
2023-05-21T07:54:50.803Z,99497.25
2023-05-21T07:57:19.517Z,99497.77
2023-05-21T07:59:53.288Z,99491.48
2023-05-21T08:02:22.669Z,99492.83
2023-05-21T08:04:52.696Z,99488.25
2023-05-21T08:07:22.305Z,99486.50
2023-05-21T08:09:51.597Z,99485.61
2023-05-21T08:12:20.086Z,99481.78
2023-05-21T08:14:48.447Z,99486.31
2023-05-21T08:17:17.464Z,99489.36
2023-05-21T08:19:45.853Z,99491.88
2023-05-21T08:22:14.191Z,99490.20
2023-05-21T08:24:44.121Z,99488.02
2023-05-21T08:27:12.389Z,99489.60
2023-05-21T08:29:40.606Z,99488.97
2023-05-21T08:32:10.279Z,99489.06
2023-05-21T08:34:38.753Z,99483.23
2023-05-21T08:37:21.689Z,99484.74
2023-05-21T08:40:01.619Z,99483.87
2023-05-21T08:42:37.146Z,99482.83
2023-05-21T08:45:07.817Z,99490.14
2023-05-21T08:47:37.205Z,99485.41
2023-05-21T08:50:09.811Z,99482.92
2023-05-21T08:52:38.306Z,99481.65
2023-05-21T08:55:08.593Z,99477.60
2023-05-21T08:57:43.884Z,99477.90
2023-05-21T09:00:12.930Z,99479.57
2023-05-21T09:02:44.220Z,99476.55
2023-05-21T09:05:15.673Z,99478.23
2023-05-21T09:07:55.945Z,99474.02
2023-05-21T09:10:55.930Z,99474.17
2023-05-21T09:13:29.356Z,99469.91
2023-05-21T09:15:57.804Z,99469.20
2023-05-21T09:18:29.617Z,99470.55
2023-05-21T09:21:25.282Z,99472.27
2023-05-21T09:23:56.155Z,99473.93
2023-05-21T09:26:26.884Z,99474.64
2023-05-21T09:29:02.464Z,99469.70
2023-05-21T09:31:33.011Z,99467.78
2023-05-21T09:34:03.917Z,99464.59
2023-05-21T09:36:38.723Z,99458.69
2023-05-21T09:39:07.045Z,99459.52
2023-05-21T09:41:38.473Z,99456.96
2023-05-21T09:44:06.957Z,99457.85
2023-05-21T09:46:41.107Z,99456.10
2023-05-21T09:49:31.461Z,99452.25
2023-05-21T09:52:01.124Z,99451.29
2023-05-21T09:54:34.182Z,99449.39
2023-05-21T09:57:02.993Z,99446.35
2023-05-21T09:59:39.198Z,99442.55
2023-05-21T10:02:24.718Z,99436.38
2023-05-21T10:04:54.866Z,99437.97
2023-05-21T10:07:26.638Z,99437.39
2023-05-21T10:09:57.311Z,99437.38
2023-05-21T10:12:27.812Z,99437.05
2023-05-21T10:15:09.746Z,99434.44
2023-05-21T10:17:39.775Z,99432.05
2023-05-21T10:20:11.190Z,99432.03
2023-05-21T10:22:41.198Z,99429.48
2023-05-21T10:25:10.375Z,99430.79
2023-05-21T10:27:39.587Z,99428.77
2023-05-21T10:30:08.834Z,99430.01
2023-05-21T10:32:40.273Z,99427.27
2023-05-21T10:35:10.304Z,99418.95
2023-05-21T10:37:39.706Z,99420.66
2023-05-21T10:40:08.767Z,99425.56
2023-05-21T10:43:26.536Z,99422.55
2023-05-21T10:46:36.833Z,99421.70
2023-05-21T10:49:25.627Z,99416.11
2023-05-21T10:52:18.477Z,99413.02
2023-05-21T10:55:17.837Z,99406.73
2023-05-21T10:57:49.007Z,99405.89
2023-05-21T11:00:20.691Z,99403.25
2023-05-21T11:02:52.350Z,99404.45
2023-05-21T11:05:52.756Z,99410.02
2023-05-21T11:08:23.670Z,99409.72
2023-05-21T11:10:58.457Z,99411.34
2023-05-21T11:13:31.481Z,99406.84
2023-05-21T11:15:59.910Z,99404.30
2023-05-21T11:18:34.281Z,99405.26
2023-05-21T11:21:17.263Z,99407.99
2023-05-21T11:23:58.422Z,99398.84
2023-05-21T11:26:29.600Z,99397.36
2023-05-21T11:29:09.658Z,99398.60
2023-05-21T11:31:39.489Z,99399.85
2023-05-21T11:34:11.329Z,99401.48
2023-05-21T11:36:45.754Z,99402.25
2023-05-21T11:39:22.376Z,99404.46
2023-05-21T11:42:04.146Z,99402.20
2023-05-21T11:44:47.740Z,99401.79
2023-05-21T11:47:18.357Z,99404.69
2023-05-21T11:49:47.209Z,99401.98
2023-05-21T11:52:15.813Z,99398.09
2023-05-21T11:54:55.526Z,99397.58
2023-05-21T11:57:31.350Z,99401.83
2023-05-21T12:00:01.896Z,99399.43
2023-05-21T12:02:32.767Z,99399.69
2023-05-21T12:05:01.453Z,99388.42
2023-05-21T12:07:30.100Z,99393.71
2023-05-21T12:09:59.126Z,99391.89
2023-05-21T12:12:35.621Z,99389.44
2023-05-21T12:15:11.637Z,99388.63
2023-05-21T12:17:40.013Z,99389.55
2023-05-21T12:20:10.981Z,99391.38
2023-05-21T12:22:43.825Z,99384.17
2023-05-21T12:25:12.430Z,99384.29
2023-05-21T12:27:42.322Z,99385.70
2023-05-21T12:30:11.207Z,99381.67
2023-05-21T12:32:44.621Z,99382.89
2023-05-21T12:35:24.421Z,99382.13
2023-05-21T12:37:53.326Z,99379.32
2023-05-21T12:40:22.539Z,99383.70
2023-05-21T12:42:51.782Z,99382.20
2023-05-21T12:45:22.823Z,99386.06
2023-05-21T12:47:56.597Z,99383.60
2023-05-21T12:50:26.780Z,99383.47
2023-05-21T12:52:56.617Z,99381.46
2023-05-21T12:55:28.730Z,99382.19
2023-05-21T12:58:03.984Z,99382.00
2023-05-21T13:00:33.562Z,99380.95
2023-05-21T13:03:04.913Z,99383.61
2023-05-21T13:05:33.473Z,99379.23
2023-05-21T13:08:01.858Z,99379.31
2023-05-21T13:10:30.503Z,99379.89
2023-05-21T13:12:58.901Z,99378.41
2023-05-21T13:15:27.242Z,99377.98
2023-05-21T13:17:57.211Z,99376.48
2023-05-21T13:20:27.492Z,99372.45
2023-05-21T13:22:56.828Z,99373.77
2023-05-21T13:25:29.825Z,99372.52
2023-05-21T13:28:03.060Z,99368.77
2023-05-21T13:30:33.536Z,99372.53
2023-05-21T13:33:02.839Z,99369.52
2023-05-21T13:35:31.299Z,99366.04
2023-05-21T13:37:59.652Z,99363.71
2023-05-21T13:40:28.331Z,99359.77
2023-05-21T13:42:56.890Z,99359.53
2023-05-21T13:45:29.459Z,99359.52
2023-05-21T13:47:58.351Z,99355.96
2023-05-21T13:50:26.892Z,99346.38
2023-05-21T13:52:55.458Z,99347.47
2023-05-21T13:55:23.790Z,99351.71
2023-05-21T13:57:52.222Z,99347.69
2023-05-21T14:00:20.716Z,99348.46
2023-05-21T14:02:50.169Z,99342.15
2023-05-21T14:05:18.868Z,99343.67
2023-05-21T14:07:48.488Z,99347.09
2023-05-21T14:10:17.142Z,99341.80
2023-05-21T14:12:46.394Z,99337.89
2023-05-21T14:15:14.956Z,99339.09
2023-05-21T14:17:43.285Z,99338.36
2023-05-21T14:20:12.117Z,99343.91
2023-05-21T14:22:40.403Z,99342.39
2023-05-21T14:25:09.288Z,99344.48
2023-05-21T14:27:38.511Z,99340.44
2023-05-21T14:30:08.028Z,99340.64
2023-05-21T14:32:36.668Z,99339.46
2023-05-21T14:35:05.692Z,99339.89
2023-05-21T14:37:34.108Z,99339.84
2023-05-21T14:40:03.450Z,99341.67
2023-05-21T14:42:32.079Z,99340.20
2023-05-21T14:45:16.870Z,99333.70
2023-05-21T14:47:47.853Z,99329.46
2023-05-21T14:50:17.502Z,99330.27
2023-05-21T14:52:46.479Z,99333.36
2023-05-21T14:55:17.071Z,99331.61
2023-05-21T14:57:45.617Z,99331.73
2023-05-21T15:00:15.239Z,99326.90
2023-05-21T15:02:43.702Z,99326.47
2023-05-21T15:05:12.493Z,99327.73
2023-05-21T15:07:40.841Z,99328.39
2023-05-21T15:10:10.178Z,99329.63
2023-05-21T15:12:40.202Z,99335.04
2023-05-21T15:15:08.958Z,99332.10
2023-05-21T15:17:37.315Z,99332.13
2023-05-21T15:20:06.770Z,99329.59
2023-05-21T15:22:35.664Z,99328.19
2023-05-21T15:25:05.025Z,99327.55
2023-05-21T15:27:34.332Z,99328.15
2023-05-21T15:30:04.262Z,99329.42
2023-05-21T15:32:32.595Z,99329.42
2023-05-21T15:35:01.096Z,99330.91
2023-05-21T15:37:32.343Z,99328.94
2023-05-21T15:40:01.081Z,99329.85
2023-05-21T15:42:31.753Z,99325.73
2023-05-21T15:45:00.332Z,99329.00
2023-05-21T15:47:28.686Z,99328.23
2023-05-21T15:49:59.058Z,99330.72
2023-05-21T15:52:27.597Z,99331.13
2023-05-21T15:54:56.377Z,99328.88
2023-05-21T15:57:24.780Z,99326.45
2023-05-21T15:59:53.190Z,99322.09
2023-05-21T16:02:21.663Z,99319.37
2023-05-21T16:04:51.785Z,99318.10
2023-05-21T16:07:20.216Z,99320.91
2023-05-21T16:09:48.515Z,99317.21
2023-05-21T16:12:17.751Z,99321.87
2023-05-21T16:14:50.304Z,99325.95
2023-05-21T16:17:19.978Z,99326.27
2023-05-21T16:19:48.458Z,99326.57
2023-05-21T16:22:17.353Z,99326.94
2023-05-21T16:24:45.724Z,99330.27
2023-05-21T16:27:14.120Z,99327.92
2023-05-21T16:29:42.547Z,99326.48
2023-05-21T16:32:13.202Z,99327.86
2023-05-21T16:34:41.728Z,99326.51
2023-05-21T16:37:10.121Z,99326.82
2023-05-21T16:39:38.753Z,99328.96
2023-05-21T16:42:07.028Z,99332.50
2023-05-21T16:44:37.121Z,99338.27
2023-05-21T16:47:05.822Z,99336.52
2023-05-21T16:49:34.103Z,99336.07
2023-05-21T16:52:03.440Z,99340.02
2023-05-21T16:54:31.770Z,99343.05
2023-05-21T16:57:00.160Z,99346.52
2023-05-21T16:59:29.126Z,99347.23
2023-05-21T17:01:57.480Z,99347.09
2023-05-21T17:04:25.820Z,99346.25
2023-05-21T17:06:54.216Z,99347.56
2023-05-21T17:09:22.594Z,99349.66
2023-05-21T17:11:50.943Z,99352.48
2023-05-21T17:14:30.236Z,99351.54
2023-05-21T17:17:02.645Z,99349.40
2023-05-21T17:19:31.300Z,99349.17
2023-05-21T17:21:59.765Z,99344.19
2023-05-21T17:24:28.169Z,99344.35
2023-05-21T17:26:56.674Z,99342.05
2023-05-21T17:29:25.068Z,99343.81
2023-05-21T17:31:53.597Z,99344.01
2023-05-21T17:34:24.754Z,99344.48
2023-05-21T17:36:54.534Z,99346.45
2023-05-21T17:39:23.132Z,99351.45
2023-05-21T17:41:51.981Z,99349.46
2023-05-21T17:44:20.409Z,99350.20
2023-05-21T17:46:51.163Z,99353.41
2023-05-21T17:49:19.572Z,99356.41
2023-05-21T17:51:48.151Z,99358.69
2023-05-21T17:54:16.616Z,99359.88
2023-05-21T17:56:46.452Z,99359.98
2023-05-21T17:59:16.217Z,99358.11
2023-05-21T18:01:44.633Z,99358.73
2023-05-21T18:04:13.470Z,99361.14
2023-05-21T18:06:43.081Z,99359.39
2023-05-21T18:09:14.389Z,99360.03
2023-05-21T18:11:44.739Z,99363.54
2023-05-21T18:14:13.192Z,99362.55
2023-05-21T18:16:41.633Z,99364.10
2023-05-21T18:19:10.201Z,99366.02
2023-05-21T18:21:38.827Z,99369.79
2023-05-21T18:24:07.500Z,99371.55
2023-05-21T18:26:36.048Z,99374.83
2023-05-21T18:29:04.463Z,99375.17
2023-05-21T18:31:32.801Z,99376.74
2023-05-21T18:34:01.168Z,99373.84
2023-05-21T18:36:29.581Z,99381.77
2023-05-21T18:38:57.811Z,99383.79
2023-05-21T18:41:26.583Z,99385.34
2023-05-21T18:43:55.188Z,99389.12
2023-05-21T18:46:23.755Z,99386.02
2023-05-21T18:48:52.180Z,99391.30
2023-05-21T18:51:20.578Z,99393.77
2023-05-21T18:53:48.810Z,99392.85
2023-05-21T18:56:17.370Z,99396.98
2023-05-21T18:58:45.844Z,99397.75
2023-05-21T19:01:14.250Z,99403.98
2023-05-21T19:03:42.776Z,99407.98
2023-05-21T19:06:13.947Z,99407.78
2023-05-21T19:08:42.291Z,99404.90
2023-05-21T19:11:12.183Z,99405.63
2023-05-21T19:13:40.823Z,99406.05
2023-05-21T19:16:11.448Z,99411.15
2023-05-21T19:18:44.597Z,99414.59
2023-05-21T19:21:13.788Z,99420.63
2023-05-21T19:23:52.582Z,99417.12
2023-05-21T19:26:22.892Z,99419.85
2023-05-21T19:28:53.794Z,99414.48
2023-05-21T19:31:23.526Z,99412.17
2023-05-21T19:33:52.379Z,99412.29
2023-05-21T19:36:22.025Z,99415.00
2023-05-21T19:38:50.911Z,99417.51
2023-05-21T19:41:22.213Z,99417.19
2023-05-21T19:43:50.494Z,99419.41
2023-05-21T19:46:20.467Z,99415.61
2023-05-21T19:48:50.745Z,99412.42
2023-05-21T19:51:19.177Z,99415.52
2023-05-21T19:53:47.430Z,99420.27
2023-05-21T19:56:16.457Z,99421.21
2023-05-21T19:58:47.792Z,99418.78
2023-05-21T20:01:16.925Z,99416.23
2023-05-21T20:03:46.367Z,99410.70
2023-05-21T20:06:17.185Z,99409.45
2023-05-21T20:08:45.948Z,99409.67
2023-05-21T20:11:14.313Z,99410.59
2023-05-21T20:13:42.728Z,99409.71
2023-05-21T20:16:12.783Z,99411.70
2023-05-21T20:18:41.720Z,99416.80
2023-05-21T20:21:10.608Z,99418.27
2023-05-21T20:23:39.077Z,99418.13
2023-05-21T20:26:07.429Z,99421.14
2023-05-21T20:28:36.557Z,99423.77
2023-05-21T20:31:05.210Z,99425.02
2023-05-21T20:33:38.713Z,99426.66
2023-05-21T20:36:08.719Z,99425.45
2023-05-21T20:38:38.240Z,99427.49
2023-05-21T20:41:07.454Z,99429.23
2023-05-21T20:43:37.488Z,99432.23
2023-05-21T20:46:06.191Z,99433.59
2023-05-21T20:48:35.366Z,99435.77
2023-05-21T20:51:06.242Z,99430.17
2023-05-21T20:53:37.170Z,99430.02
2023-05-21T20:56:08.073Z,99431.89
2023-05-21T20:58:36.878Z,99426.21
2023-05-21T21:01:05.263Z,99433.43
2023-05-21T21:03:34.408Z,99432.80
2023-05-21T21:06:04.491Z,99430.51
2023-05-21T21:08:34.914Z,99431.29
2023-05-21T21:11:03.245Z,99430.42
2023-05-21T21:13:31.589Z,99429.55
2023-05-21T21:15:59.970Z,99430.57
2023-05-21T21:18:28.335Z,99434.58
2023-05-21T21:20:56.627Z,99436.89
2023-05-21T21:23:27.918Z,99436.83
2023-05-21T21:25:57.595Z,99440.30
2023-05-21T21:28:26.029Z,99440.73
2023-05-21T21:30:54.432Z,99443.50
2023-05-21T21:33:24.581Z,99442.27
2023-05-21T21:35:53.061Z,99444.56
2023-05-21T21:38:21.609Z,99444.27
2023-05-21T21:40:50.106Z,99446.23
2023-05-21T21:43:18.614Z,99445.59
2023-05-21T21:45:46.928Z,99449.74
2023-05-21T21:48:16.703Z,99453.66
2023-05-21T21:50:45.411Z,99452.01
2023-05-21T21:53:14.191Z,99451.36
2023-05-21T21:55:42.569Z,99450.58
2023-05-21T21:58:11.448Z,99452.69
2023-05-21T22:00:40.331Z,99456.35
2023-05-21T22:03:08.968Z,99457.69
2023-05-21T22:05:38.357Z,99456.80
2023-05-21T22:08:06.663Z,99454.61
2023-05-21T22:10:38.238Z,99452.94
2023-05-21T22:13:07.671Z,99448.43
2023-05-21T22:15:36.102Z,99445.85
2023-05-21T22:18:04.640Z,99445.98
2023-05-21T22:20:35.922Z,99449.42
2023-05-21T22:23:04.569Z,99446.28
2023-05-21T22:25:32.946Z,99445.31
2023-05-21T22:28:01.288Z,99439.27
2023-05-21T22:30:29.729Z,99432.09
2023-05-21T22:32:58.156Z,99430.34
2023-05-21T22:35:26.857Z,99430.23
2023-05-21T22:37:55.166Z,99431.63
2023-05-21T22:40:23.561Z,99427.86
2023-05-21T22:42:51.923Z,99424.95
2023-05-21T22:45:21.906Z,99424.17
2023-05-21T22:47:52.039Z,99422.45
2023-05-21T22:50:20.837Z,99420.05
2023-05-21T22:52:49.425Z,99420.64
2023-05-21T22:55:17.945Z,99424.29
2023-05-21T22:57:46.346Z,99423.85
2023-05-21T23:00:14.954Z,99427.98
2023-05-21T23:02:43.423Z,99425.06
2023-05-21T23:05:11.777Z,99424.94
2023-05-21T23:07:41.521Z,99425.88
2023-05-21T23:10:10.198Z,99423.13
2023-05-21T23:12:38.537Z,99420.58
2023-05-21T23:15:07.433Z,99416.34
2023-05-21T23:17:36.067Z,99415.33
2023-05-21T23:20:07.481Z,99413.94
2023-05-21T23:22:36.070Z,99414.70
2023-05-21T23:25:05.207Z,99416.04
2023-05-21T23:27:33.838Z,99414.19
2023-05-21T23:30:02.208Z,99408.61
2023-05-21T23:32:30.591Z,99404.94
2023-05-21T23:34:59.001Z,99402.52
2023-05-21T23:37:27.339Z,99401.16
2023-05-21T23:39:55.650Z,99398.75
2023-05-21T23:42:23.972Z,99398.84
2023-05-21T23:44:52.392Z,99399.10
2023-05-21T23:47:20.698Z,99394.61
2023-05-21T23:49:49.027Z,99390.84
2023-05-21T23:52:18.470Z,99390.45
2023-05-21T23:54:46.795Z,99390.95
2023-05-21T23:57:15.170Z,99391.91
2023-05-21T23:59:43.581Z,99394.89
